Map

Track Data

SID SEASON NUMBER BASIN SUBBASIN NAME ISO_TIME NATURE LAT LON WMO_WIND WMO_PRES WMO_AGENCY TRACK_TYPE DIST2LAND LANDFALL IFLAG USA_AGENCY USA_ATCF_ID USA_LAT USA_LON USA_RECORD USA_STATUS USA_WIND USA_PRES USA_SSHS USA_R34_NE USA_R34_SE USA_R34_SW USA_R34_NW USA_R50_NE USA_R50_SE USA_R50_SW USA_R50_NW USA_R64_NE USA_R64_SE USA_R64_SW USA_R64_NW USA_POCI USA_ROCI USA_RMW USA_EYE TOKYO_LAT TOKYO_LON TOKYO_GRADE TOKYO_WIND TOKYO_PRES TOKYO_R50_DIR TOKYO_R50_LONG TOKYO_R50_SHORT TOKYO_R30_DIR TOKYO_R30_LONG TOKYO_R30_SHORT TOKYO_LAND CMA_LAT CMA_LON CMA_CAT CMA_WIND CMA_PRES HKO_LAT HKO_LON HKO_CAT HKO_WIND HKO_PRES NEWDELHI_LAT NEWDELHI_LON NEWDELHI_GRADE NEWDELHI_WIND NEWDELHI_PRES NEWDELHI_CI NEWDELHI_DP NEWDELHI_POCI REUNION_LAT REUNION_LON REUNION_TYPE REUNION_WIND REUNION_PRES REUNION_TNUM REUNION_CI REUNION_RMW REUNION_R34_NE REUNION_R34_SE REUNION_R34_SW REUNION_R34_NW REUNION_R50_NE REUNION_R50_SE REUNION_R50_SW REUNION_R50_NW REUNION_R64_NE REUNION_R64_SE REUNION_R64_SW REUNION_R64_NW BOM_LAT BOM_LON BOM_TYPE BOM_WIND BOM_PRES BOM_TNUM BOM_CI BOM_RMW BOM_R34_NE BOM_R34_SE BOM_R34_SW BOM_R34_NW BOM_R50_NE BOM_R50_SE BOM_R50_SW BOM_R50_NW BOM_R64_NE BOM_R64_SE BOM_R64_SW BOM_R64_NW BOM_ROCI BOM_POCI BOM_EYE BOM_POS_METHOD BOM_PRES_METHOD NADI_LAT NADI_LON NADI_CAT NADI_WIND NADI_PRES WELLINGTON_LAT WELLINGTON_LON WELLINGTON_WIND WELLINGTON_PRES DS824_LAT DS824_LON DS824_STAGE DS824_WIND DS824_PRES TD9636_LAT TD9636_LON TD9636_STAGE TD9636_WIND TD9636_PRES TD9635_LAT TD9635_LON TD9635_WIND TD9635_PRES TD9635_ROCI NEUMANN_LAT NEUMANN_LON NEUMANN_CLASS NEUMANN_WIND NEUMANN_PRES MLC_LAT MLC_LON MLC_CLASS MLC_WIND MLC_PRES USA_GUST BOM_GUST BOM_GUST_PER REUNION_GUST REUNION_GUST_PER USA_SEAHGT USA_SEARAD_NE USA_SEARAD_SE USA_SEARAD_SW USA_SEARAD_NW STORM_SPEED STORM_DIR
1950291N20146 1950 96 WP MM PETIE 1950-10-17 18:00:00 TS 19.9000 146.200 main 1785 1732 __O___________ -1 19.9000 146.200 0 1006 10 355
1950291N20146 1950 96 WP MM PETIE 1950-10-17 21:00:00 TS 20.4125 146.153 main 1732 1676 __P___________ -1 20.4125 146.153 0 1005 10 354
1950291N20146 1950 96 WP MM PETIE 1950-10-18 00:00:00 TS 20.9000 146.100 main 1676 1630 __O___________ -1 20.9000 146.100 1 29 1004 9 354
1950291N20146 1950 96 WP MM PETIE 1950-10-18 03:00:00 TS 21.3500 146.043 main 1620 1578 __P___________ -1 21.3500 146.043 1 33 999 9 354
1950291N20146 1950 96 WP MM PETIE 1950-10-18 06:00:00 TS 21.8000 146.000 main 1578 1526 __O___________ -1 21.8000 146.000 2 38 994 9 358
1950291N20146 1950 96 WP MM PETIE 1950-10-18 09:00:00 TS 22.2925 146.000 main 1526 1474 __P___________ -1 22.2925 146.000 2 48 989 10 1
1950291N20146 1950 96 WP MM PETIE 1950-10-18 12:00:00 TS 22.8000 146.000 main 1474 1422 __O___________ -1 22.8000 146.000 3 58 984 10 0
1950291N20146 1950 96 WP MM PETIE 1950-10-18 15:00:00 TS 23.3000 145.972 main 1422 1367 __P___________ -1 23.3000 145.972 3 63 979 10 355
1950291N20146 1950 96 WP MM PETIE 1950-10-18 18:00:00 TS 23.8000 145.900 main 1367 1312 __O___________ -1 23.8000 145.900 4 68 975 11 351
1950291N20146 1950 96 WP MM PETIE 1950-10-18 21:00:00 TS 24.3374 145.795 main 1312 1257 __P___________ -1 24.3374 145.795 4 72 972 11 351
1950291N20146 1950 96 WP MM PETIE 1950-10-19 00:00:00 TS 24.8429 145.729 main 1257 1224 O_O_______OO__ jtwc_wp WP131950 24.9000 145.900 85 2 24.8000 145.600 4 77 970 24.9000 145.900 3 85 24.9000 145.900 85 988 180 8 334
1950291N20146 1950 96 WP MM PETIE 1950-10-19 03:00:00 TS 25.0433 145.412 main 1224 1191 P_P_______PP__ WP131950 25.0003 145.483 85 2 25.1101 145.273 4 82 966 24.9959 145.549 3 83 25.0003 145.483 85 988 210 7 298
1950291N20146 1950 96 WP MM PETIE 1950-10-19 06:00:00 TS 25.1599 145.061 main 1191 1180 O_O_______PO__ jtwc_wp WP131950 25.1000 145.100 85 2 25.3000 144.900 5 87 963 25.0931 145.198 3 82 25.1000 145.100 85 989 240 6 289
1950291N20146 1950 96 WP MM PETIE 1950-10-19 09:00:00 TS 25.2540 144.747 main 1165 1158 P_P_______PP__ WP131950 25.1999 144.777 82 1 25.4224 144.585 5 87 964 25.1937 144.848 3 81 25.1999 144.777 82 990 270 6 289
1950291N20146 1950 96 WP MM PETIE 1950-10-19 12:00:00 TS 25.3500 144.450 main 1148 1137 O_O_______OO__ jtwc_wp WP131950 25.3000 144.500 80 1 25.5000 144.300 5 87 966 25.3000 144.500 4 80 25.3000 144.500 80 991 300 5 291
1950291N20146 1950 96 WP MM PETIE 1950-10-19 15:00:00 TS 25.4495 144.188 main 1137 1106 P_P_______PP__ WP131950 25.3923 144.265 77 1 25.5998 144.065 5 82 967 25.4136 144.156 4 77 25.3923 144.265 77 991 330 5 293
1950291N20146 1950 96 WP MM PETIE 1950-10-19 18:00:00 TS 25.5587 143.905 main 1106 1082 O_O_______PO__ jtwc_wp WP131950 25.5000 144.000 75 1 25.7000 143.800 4 77 968 25.5349 143.820 4 75 25.5000 144.000 75 992 360 6 291
1950291N20146 1950 96 WP MM PETIE 1950-10-19 21:00:00 TS 25.6798 143.527 main 1082 1063 P_P_______PP__ WP131950 25.6277 143.600 72 1 25.8002 143.408 4 77 969 25.6637 143.499 4 72 25.6277 143.600 72 992 360 7 291
1950291N20146 1950 96 WP MM PETIE 1950-10-20 00:00:00 TS 25.8250 143.150 main 1063 1033 O_O_______OO__ jtwc_wp WP131950 25.8000 143.200 70 1 25.9000 143.000 4 77 970 25.8000 143.200 4 70 25.8000 143.200 70 993 360 7 299
1950291N20146 1950 96 WP MM PETIE 1950-10-20 03:00:00 TS 26.0170 142.863 main 1033 1004 P_P_______PP__ WP131950 26.0648 142.928 67 1 25.9998 142.692 4 72 971 25.9386 142.904 4 70 26.0648 142.928 67 994 300 6 307
1950291N20146 1950 96 WP MM PETIE 1950-10-20 06:00:00 TS 26.1962 142.608 main 1004 984 O_O_______PO__ jtwc_wp WP131950 26.3000 142.700 65 1 26.1000 142.400 4 68 972 26.0849 142.633 4 70 26.3000 142.700 65 995 240 6 299
1950291N20146 1950 96 WP MM PETIE 1950-10-20 09:00:00 TS 26.2922 142.319 main 984 967 P_P_______PP__ WP131950 26.3725 142.427 67 1 26.1851 142.027 4 68 973 26.2387 142.395 4 70 26.3725 142.427 67 994 210 5 291
1950291N20146 1950 96 WP MM PETIE 1950-10-20 12:00:00 TS 26.3750 142.075 main 967 951 O_O_______OO__ jtwc_wp WP131950 26.4000 142.200 70 1 26.3000 141.700 4 68 975 26.4000 142.200 4 70 26.4000 142.200 70 993 180 4 299
1950291N20146 1950 96 WP MM PETIE 1950-10-20 15:00:00 TS 26.4972 141.914 main 951 926 P_P_______PP__ WP131950 26.4699 142.077 72 1 26.4774 141.498 4 68 976 26.5716 142.004 4 72 26.4699 142.077 72 992 180 4 321
1950291N20146 1950 96 WP MM PETIE 1950-10-20 18:00:00 TS 26.6624 141.814 main 926 902 O_O_______PO__ jtwc_wp WP131950 26.6000 142.000 75 1 26.7000 141.400 4 68 978 26.7496 141.858 4 75 26.6000 142.000 75 991 180 4 336
1950291N20146 1950 96 WP MM PETIE 1950-10-20 21:00:00 TS 26.8850 141.718 main 902 881 P_P_______PP__ WP131950 26.8350 141.878 77 1 26.9424 141.333 4 68 979 26.9278 141.783 4 77 26.8350 141.878 77 990 180 5 347
1950291N20146 1950 96 WP MM PETIE 1950-10-21 00:00:00 TS 27.1250 141.700 main 881 859 O_O_______OO__ jtwc_wp WP131950 27.1000 141.800 80 1 27.2000 141.400 4 68 980 27.1000 141.800 4 80 27.1000 141.800 80 989 180 5 7
1950291N20146 1950 96 WP MM PETIE 1950-10-21 03:00:00 TS 27.3427 141.777 main 862 845 P_P_______PP__ WP131950 27.3223 141.775 80 1 27.4652 141.662 4 68 979 27.2609 141.895 4 80 27.3223 141.775 80 988 180 5 31
1950291N20146 1950 96 WP MM PETIE 1950-10-21 06:00:00 TS 27.5286 141.971 main 848 832 O_O_______PO__ jtwc_wp WP131950 27.5000 141.900 80 1 27.7000 142.000 4 68 978 27.4144 142.085 4 80 27.5000 141.900 80 987 180 5 54
1950291N20146 1950 96 WP MM PETIE 1950-10-21 09:00:00 TS 27.6601 142.263 main 834 832 P_P_______PP__ WP131950 27.6075 142.233 80 1 27.8647 142.228 4 68 976 27.5607 142.358 4 80 27.6075 142.233 80 986 180 6 68
1950291N20146 1950 96 WP MM PETIE 1950-10-21 12:00:00 TS 27.7750 142.650 main 835 830 O_O_______OO__ jtwc_wp WP131950 27.7000 142.700 80 1 28.0000 142.500 4 68 975 27.7000 142.700 4 80 27.7000 142.700 80 985 180 8 71
1950291N20146 1950 96 WP MM PETIE 1950-10-21 15:00:00 TS 27.9204 143.099 main 837 830 P_P_______PP__ WP131950 27.8501 143.200 82 1 28.1650 142.912 4 68 974 27.8163 143.086 4 81 27.8501 143.200 82 983 180 9 71
1950291N20146 1950 96 WP MM PETIE 1950-10-21 18:00:00 TS 28.0570 143.583 main 835 835 O_O_______PO__ jtwc_wp WP131950 28.0000 143.700 85 2 28.3000 143.400 4 68 973 27.9280 143.533 4 82 28.0000 143.700 85 982 180 9 74
1950291N20146 1950 96 WP MM PETIE 1950-10-21 21:00:00 TS 28.1500 144.036 main 841 841 P_P_______PP__ WP131950 28.0922 144.115 85 2 28.3650 143.900 4 72 971 28.0506 144.014 4 83 28.0922 144.115 85 981 180 8 76
1950291N20146 1950 96 WP MM PETIE 1950-10-22 00:00:00 TS 28.2500 144.475 main 854 854 O_O_______OO__ jtwc_wp WP131950 28.2000 144.500 85 2 28.4000 144.400 4 77 970 28.2000 144.500 4 85 28.2000 144.500 85 980 180 8 73
1950291N20146 1950 96 WP MM PETIE 1950-10-22 03:00:00 TS 28.3831 144.881 main 865 865 P_P_______PP__ WP131950 28.3772 144.885 87 2 28.4196 144.843 4 77 970 28.3582 144.912 4 86 28.3772 144.885 87 979 270 8 67
1950291N20146 1950 96 WP MM PETIE 1950-10-22 06:00:00 TS 28.5626 145.307 main 867 867 O_O_______PO__ jtwc_wp WP131950 28.6000 145.300 90 2 28.5000 145.300 4 77 970 28.5502 145.329 4 87 28.6000 145.300 90 978 360 9 63
1950291N20146 1950 96 WP MM PETIE 1950-10-22 09:00:00 TS 28.7783 145.767 main 875 872 P_P_______PP__ WP131950 28.8119 145.741 90 2 28.6970 145.805 4 77 970 28.7922 145.781 4 88 28.8119 145.741 90 979 360 10 60
1950291N20146 1950 96 WP MM PETIE 1950-10-22 12:00:00 TS 29.0750 146.325 main 877 877 O_O_______OO__ jtwc_wp WP131950 29.1000 146.300 90 2 29.0000 146.400 4 77 970 29.1000 146.300 4 90 29.1000 146.300 90 980 360 13 59
1950291N20146 1950 96 WP MM PETIE 1950-10-22 15:00:00 TS 29.4656 147.057 main 893 891 P_P_______PP__ WP131950 29.5207 147.084 87 2 29.3552 147.128 4 77 970 29.4658 146.932 4 87 29.5207 147.084 87 982 360 16 57
1950291N20146 1950 96 WP MM PETIE 1950-10-22 18:00:00 TS 29.9240 147.833 main 909 909 O_O_______PO__ jtwc_wp WP131950 30.0000 147.900 85 2 29.8000 147.900 4 77 970 29.8960 147.633 4 85 30.0000 147.900 85 985 360 16 53
1950291N20146 1950 96 WP MM PETIE 1950-10-22 21:00:00 TS 30.3932 148.495 main 920 920 P_P_______PP__ WP131950 30.4339 148.509 82 1 30.3268 148.593 4 77 970 30.3781 148.367 4 82 30.4339 148.509 82 987 390 15 49
1950291N20146 1950 96 WP MM PETIE 1950-10-23 00:00:00 TS 30.9000 149.150 main 937 930 O_O_______OO__ jtwc_wp WP131950 30.9000 149.100 80 1 30.9000 149.300 4 77 970 30.9000 149.100 4 80 30.9000 149.100 80 990 420 16 49
1950291N20146 1950 96 WP MM PETIE 1950-10-23 03:00:00 TS 31.4407 149.884 main 959 954 P_P_______PP__ WP131950 31.4278 149.850 75 1 31.4562 150.034 4 72 974 31.4512 149.803 4 75 31.4278 149.850 75 992 390 17 49
1950291N20146 1950 96 WP MM PETIE 1950-10-23 06:00:00 TS 32.0055 150.664 main 992 992 O_O_______PO__ jtwc_wp WP131950 32.0000 150.600 70 1 32.0000 150.900 4 68 978 32.0237 150.479 4 70 32.0000 150.600 70 995 360 18 51
1950291N20146 1950 96 WP MM PETIE 1950-10-23 09:00:00 TS 32.5509 151.520 main 1032 1032 P_P_______PP__ WP131950 32.5950 151.237 65 1 32.4776 151.992 4 63 982 32.6094 151.141 4 65 32.5950 151.237 65 997 270 20 56
1950291N20146 1950 96 WP MM PETIE 1950-10-23 12:00:00 TS 33.0857 152.600 main 1108 1108 O_O_______OO__ jtwc_wp WP131950 33.2000 151.800 60 0 33.0000 153.200 3 58 986 33.2000 151.800 2 60 33.2000 151.800 60 999 180 26 64
1950291N20146 1950 96 WP MM PETIE 1950-10-23 15:00:00 TS 33.6727 154.283 main 1241 1241 __P___________ WP131950 -1 33.6727 154.283 3 48 990 2 28 62
1950291N20146 1950 96 WP MM PETIE 1950-10-23 18:00:00 TS 34.4000 155.600 main 1310 1310 __O___________ -1 34.4000 155.600 2 38 995 2 29 63
1950291N20146 1950 96 WP MM PETIE 1950-10-23 21:00:00 TS 34.9896 157.401 main 1345 1344 __P___________ -1 34.9896 157.401 2 33 997 2 34 68
1950291N20146 1950 96 WP MM PETIE 1950-10-24 00:00:00 TS 35.7000 159.500 main 1373 1373 __O___________ -1 35.7000 159.500 1 29 1000 39 64
1950291N20146 1950 96 WP MM PETIE 1950-10-24 03:00:00 TS 36.7150 161.709 main 1400 1397 __P___________ -1 36.7150 161.709 1 1002 42 59
1950291N20146 1950 96 WP MM PETIE 1950-10-24 06:00:00 TS 37.9000 164.000 main 1440 __O___________ -1 37.9000 164.000 0 1005 43 57

Digital Typhoon Data and Search

About IBTrACS Database

This database is a web-friendly format of International Best Track Archive for Climate Stewardship (IBTrACS), a global best track data archive curated by NOAA dating back to 1842.

Updated: 2021-12-08